sensor_id;sensor_type;location;lat;lon;timestamp;pressure;altitude;pressure_sealevel;temperature;humidity
13015;BME280;6573;57.696;11.950;2022-10-16T00:01:07;99898.03;;;14.05;100.00
13015;BME280;6573;57.696;11.950;2022-10-16T00:03:35;99901.47;;;14.07;100.00
13015;BME280;6573;57.696;11.950;2022-10-16T00:06:04;99899.84;;;14.03;100.00
13015;BME280;6573;57.696;11.950;2022-10-16T00:08:33;99895.53;;;14.01;100.00
13015;BME280;6573;57.696;11.950;2022-10-16T00:11:03;99903.63;;;13.96;100.00
13015;BME280;6573;57.696;11.950;2022-10-16T00:13:32;99901.97;;;13.92;100.00
13015;BME280;6573;57.696;11.950;2022-10-16T00:16:01;99912.53;;;13.92;100.00
13015;BME280;6573;57.696;11.950;2022-10-16T00:18:31;99915.25;;;13.91;100.00
13015;BME280;6573;57.696;11.950;2022-10-16T00:21:02;99920.56;;;13.89;100.00
13015;BME280;6573;57.696;11.950;2022-10-16T00:23:31;99926.78;;;13.88;100.00
13015;BME280;6573;57.696;11.950;2022-10-16T00:26:01;99925.22;;;13.81;100.00
13015;BME280;6573;57.696;11.950;2022-10-16T00:28:30;99935.81;;;13.81;100.00
13015;BME280;6573;57.696;11.950;2022-10-16T00:31:03;99941.00;;;13.84;100.00
13015;BME280;6573;57.696;11.950;2022-10-16T00:33:33;99943.00;;;13.76;100.00
13015;BME280;6573;57.696;11.950;2022-10-16T00:36:02;99937.72;;;13.76;100.00
13015;BME280;6573;57.696;11.950;2022-10-16T00:38:30;99939.50;;;13.76;100.00
13015;BME280;6573;57.696;11.950;2022-10-16T00:40:59;99937.72;;;13.76;100.00
13015;BME280;6573;57.696;11.950;2022-10-16T00:43:36;99946.63;;;13.72;100.00
13015;BME280;6573;57.696;11.950;2022-10-16T00:46:11;99951.75;;;13.78;100.00
13015;BME280;6573;57.696;11.950;2022-10-16T00:48:46;99949.19;;;13.75;100.00
13015;BME280;6573;57.696;11.950;2022-10-16T00:51:17;99948.28;;;13.76;100.00
13015;BME280;6573;57.696;11.950;2022-10-16T00:53:48;99951.84;;;13.75;100.00
13015;BME280;6573;57.696;11.950;2022-10-16T00:56:17;99949.28;;;13.72;100.00
13015;BME280;6573;57.696;11.950;2022-10-16T00:58:45;99954.78;;;13.64;100.00
13015;BME280;6573;57.696;11.950;2022-10-16T01:01:13;99968.94;;;13.62;100.00
13015;BME280;6573;57.696;11.950;2022-10-16T01:03:43;99962.84;;;13.60;100.00
13015;BME280;6573;57.696;11.950;2022-10-16T01:06:22;99973.50;;;13.57;100.00
13015;BME280;6573;57.696;11.950;2022-10-16T01:09:13;99969.34;;;13.48;100.00
13015;BME280;6573;57.696;11.950;2022-10-16T01:11:50;99971.88;;;13.53;100.00
13015;BME280;6573;57.696;11.950;2022-10-16T01:14:27;99979.88;;;13.50;100.00
13015;BME280;6573;57.696;11.950;2022-10-16T01:17:02;99986.00;;;13.52;100.00
13015;BME280;6573;57.696;11.950;2022-10-16T01:19:48;99980.88;;;13.46;100.00
13015;BME280;6573;57.696;11.950;2022-10-16T01:22:19;99976.53;;;13.43;100.00
13015;BME280;6573;57.696;11.950;2022-10-16T01:24:53;99980.19;;;13.39;100.00
13015;BME280;6573;57.696;11.950;2022-10-16T01:27:25;99982.94;;;13.35;100.00
13015;BME280;6573;57.696;11.950;2022-10-16T01:29:58;99979.47;;;13.33;100.00
13015;BME280;6573;57.696;11.950;2022-10-16T01:32:34;99981.38;;;13.28;100.00
13015;BME280;6573;57.696;11.950;2022-10-16T01:35:09;99990.28;;;13.24;100.00
13015;BME280;6573;57.696;11.950;2022-10-16T01:37:41;99994.75;;;13.22;100.00
13015;BME280;6573;57.696;11.950;2022-10-16T01:40:16;100000.94;;;13.21;100.00
13015;BME280;6573;57.696;11.950;2022-10-16T01:42:50;99999.22;;;13.20;100.00
13015;BME280;6573;57.696;11.950;2022-10-16T01:45:21;100000.94;;;13.21;100.00
13015;BME280;6573;57.696;11.950;2022-10-16T01:47:50;100000.94;;;13.21;100.00
13015;BME280;6573;57.696;11.950;2022-10-16T01:50:20;99999.03;;;13.26;100.00
13015;BME280;6573;57.696;11.950;2022-10-16T01:52:51;99992.88;;;13.27;100.00
13015;BME280;6573;57.696;11.950;2022-10-16T01:55:24;99999.22;;;13.20;100.00
13015;BME280;6573;57.696;11.950;2022-10-16T01:57:56;99994.78;;;13.20;100.00
13015;BME280;6573;57.696;11.950;2022-10-16T02:00:26;100005.41;;;13.19;100.00
13015;BME280;6573;57.696;11.950;2022-10-16T02:02:55;100008.03;;;13.19;100.00
13015;BME280;6573;57.696;11.950;2022-10-16T02:05:28;100004.56;;;13.17;100.00
13015;BME280;6573;57.696;11.950;2022-10-16T02:07:58;99995.56;;;13.24;100.00
13015;BME280;6573;57.696;11.950;2022-10-16T02:10:31;100008.03;;;13.19;100.00
13015;BME280;6573;57.696;11.950;2022-10-16T02:13:05;100005.53;;;13.13;100.00
13015;BME280;6573;57.696;11.950;2022-10-16T02:15:34;100015.28;;;13.11;100.00
13015;BME280;6573;57.696;11.950;2022-10-16T02:18:02;100012.50;;;13.17;100.00
13015;BME280;6573;57.696;11.950;2022-10-16T02:20:40;100014.25;;;13.16;100.00
13015;BME280;6573;57.696;11.950;2022-10-16T02:23:16;100022.38;;;13.09;100.00
13015;BME280;6573;57.696;11.950;2022-10-16T02:25:47;100032.00;;;13.11;100.00
13015;BME280;6573;57.696;11.950;2022-10-16T02:28:22;100031.13;;;13.11;100.00
13015;BME280;6573;57.696;11.950;2022-10-16T02:30:57;100034.69;;;13.10;100.00
13015;BME280;6573;57.696;11.950;2022-10-16T02:33:28;100039.97;;;13.10;100.00
13015;BME280;6573;57.696;11.950;2022-10-16T02:35:57;100037.34;;;13.08;100.00
13015;BME280;6573;57.696;11.950;2022-10-16T02:38:26;100035.63;;;13.07;100.00
13015;BME280;6573;57.696;11.950;2022-10-16T02:40:55;100042.63;;;13.10;100.00
13015;BME280;6573;57.696;11.950;2022-10-16T02:43:25;100035.44;;;13.15;100.00
13015;BME280;6573;57.696;11.950;2022-10-16T02:45:53;100034.59;;;13.13;100.00
13015;BME280;6573;57.696;11.950;2022-10-16T02:48:21;100036.25;;;13.17;100.00
13015;BME280;6573;57.696;11.950;2022-10-16T02:50:49;100034.50;;;13.16;100.00
13015;BME280;6573;57.696;11.950;2022-10-16T02:53:17;100043.19;;;13.21;100.00
13015;BME280;6573;57.696;11.950;2022-10-16T02:55:46;100041.53;;;13.17;100.00
13015;BME280;6573;57.696;11.950;2022-10-16T02:58:14;100045.00;;;13.19;100.00
13015;BME280;6573;57.696;11.950;2022-10-16T03:00:43;100036.25;;;13.17;100.00
13015;BME280;6573;57.696;11.950;2022-10-16T03:03:13;100031.13;;;13.11;100.00
13015;BME280;6573;57.696;11.950;2022-10-16T03:05:43;100034.44;;;13.19;100.00
13015;BME280;6573;57.696;11.950;2022-10-16T03:08:12;100038.84;;;13.18;100.00
13015;BME280;6573;57.696;11.950;2022-10-16T03:10:41;100036.19;;;13.20;100.00
13015;BME280;6573;57.696;11.950;2022-10-16T03:13:10;100034.38;;;13.22;100.00
13015;BME280;6573;57.696;11.950;2022-10-16T03:15:38;100030.81;;;13.23;100.00
13015;BME280;6573;57.696;11.950;2022-10-16T03:18:08;100030.72;;;13.26;100.00
13015;BME280;6573;57.696;11.950;2022-10-16T03:20:36;100027.19;;;13.27;100.00
13015;BME280;6573;57.696;11.950;2022-10-16T03:23:04;100028.91;;;13.28;100.00
13015;BME280;6573;57.696;11.950;2022-10-16T03:25:33;100030.72;;;13.26;100.00
13015;BME280;6573;57.696;11.950;2022-10-16T03:28:01;100027.09;;;13.30;100.00
13015;BME280;6573;57.696;11.950;2022-10-16T03:30:30;100028.97;;;13.25;100.00
13015;BME280;6573;57.696;11.950;2022-10-16T03:32:58;100034.50;;;13.16;100.00
13015;BME280;6573;57.696;11.950;2022-10-16T03:35:27;100034.69;;;13.10;100.00
13015;BME280;6573;57.696;11.950;2022-10-16T03:37:56;100034.75;;;13.07;100.00
13015;BME280;6573;57.696;11.950;2022-10-16T03:40:24;100038.22;;;13.09;100.00
13015;BME280;6573;57.696;11.950;2022-10-16T03:42:53;100039.13;;;13.08;100.00
13015;BME280;6573;57.696;11.950;2022-10-16T03:45:23;100035.50;;;13.12;100.00
13015;BME280;6573;57.696;11.950;2022-10-16T03:47:53;100041.69;;;13.11;100.00
13015;BME280;6573;57.696;11.950;2022-10-16T03:50:21;100031.13;;;13.11;100.00
13015;BME280;6573;57.696;11.950;2022-10-16T03:52:50;100033.03;;;13.04;100.00
13015;BME280;6573;57.696;11.950;2022-10-16T03:55:19;100033.91;;;13.05;100.00
13015;BME280;6573;57.696;11.950;2022-10-16T03:57:47;100038.22;;;13.09;100.00
13015;BME280;6573;57.696;11.950;2022-10-16T04:00:15;100034.88;;;13.00;100.00
13015;BME280;6573;57.696;11.950;2022-10-16T04:02:43;100038.63;;;12.90;100.00
13015;BME280;6573;57.696;11.950;2022-10-16T04:05:16;100034.31;;;12.88;100.00
13015;BME280;6573;57.696;11.950;2022-10-16T04:07:45;100040.53;;;12.85;100.00
13015;BME280;6573;57.696;11.950;2022-10-16T04:10:15;100045.72;;;12.88;100.00
13015;BME280;6573;57.696;11.950;2022-10-16T04:12:42;100043.03;;;12.91;100.00
13015;BME280;6573;57.696;11.950;2022-10-16T04:15:11;100051.00;;;12.88;100.00
13015;BME280;6573;57.696;11.950;2022-10-16T04:17:39;100045.91;;;12.82;100.00
13015;BME280;6573;57.696;11.950;2022-10-16T04:20:08;100047.84;;;12.74;100.00
13015;BME280;6573;57.696;11.950;2022-10-16T04:22:36;100048.03;;;12.65;100.00
13015;BME280;6573;57.696;11.950;2022-10-16T04:25:05;100040.34;;;12.56;100.00
13015;BME280;6573;57.696;11.950;2022-10-16T04:27:34;100044.94;;;12.48;100.00
13015;BME280;6573;57.696;11.950;2022-10-16T04:30:08;100046.81;;;12.43;100.00
13015;BME280;6573;57.696;11.950;2022-10-16T04:32:36;100037.25;;;12.39;100.00
13015;BME280;6573;57.696;11.950;2022-10-16T04:35:06;100045.28;;;12.33;100.00
13015;BME280;6573;57.696;11.950;2022-10-16T04:37:34;100045.44;;;12.27;100.00
13015;BME280;6573;57.696;11.950;2022-10-16T04:40:03;100040.09;;;12.30;100.00
13015;BME280;6573;57.696;11.950;2022-10-16T04:42:31;100036.59;;;12.28;100.00
13015;BME280;6573;57.696;11.950;2022-10-16T04:45:02;100044.88;;;12.13;100.00
13015;BME280;6573;57.696;11.950;2022-10-16T04:47:30;100037.03;;;12.10;100.00
13015;BME280;6573;57.696;11.950;2022-10-16T04:49:58;100036.19;;;12.06;100.00
13015;BME280;6573;57.696;11.950;2022-10-16T04:52:29;100039.78;;;12.04;100.00
13015;BME280;6573;57.696;11.950;2022-10-16T04:54:58;100050.16;;;12.11;100.00
13015;BME280;6573;57.696;11.950;2022-10-16T04:57:29;100049.44;;;12.05;100.00
13015;BME280;6573;57.696;11.950;2022-10-16T04:59:57;100054.75;;;12.02;100.00
13015;BME280;6573;57.696;11.950;2022-10-16T05:02:27;100049.50;;;12.02;100.00
13015;BME280;6573;57.696;11.950;2022-10-16T05:04:55;100045.19;;;11.98;100.00
13015;BME280;6573;57.696;11.950;2022-10-16T05:07:23;100040.75;;;12.00;100.00
13015;BME280;6573;57.696;11.950;2022-10-16T05:09:52;100029.28;;;12.01;100.00
13015;BME280;6573;57.696;11.950;2022-10-16T05:12:20;100019.59;;;12.03;100.00
13015;BME280;6573;57.696;11.950;2022-10-16T05:14:48;100020.28;;;12.12;100.00
13015;BME280;6573;57.696;11.950;2022-10-16T05:17:16;100027.19;;;12.18;100.00
13015;BME280;6573;57.696;11.950;2022-10-16T05:19:46;100019.22;;;12.19;100.00
13015;BME280;6573;57.696;11.950;2022-10-16T05:22:14;100033.22;;;12.23;100.00
13015;BME280;6573;57.696;11.950;2022-10-16T05:24:42;100018.34;;;12.20;100.00
13015;BME280;6573;57.696;11.950;2022-10-16T05:27:10;100034.94;;;12.24;100.00
13015;BME280;6573;57.696;11.950;2022-10-16T05:29:45;100020.59;;;12.37;100.00
13015;BME280;6573;57.696;11.950;2022-10-16T05:32:15;100022.47;;;12.32;100.00
13015;BME280;6573;57.696;11.950;2022-10-16T05:34:43;100012.56;;;12.42;100.00
13015;BME280;6573;57.696;11.950;2022-10-16T05:37:12;100022.41;;;12.35;100.00
13015;BME280;6573;57.696;11.950;2022-10-16T05:39:41;100015.25;;;12.40;100.00
13015;BME280;6573;57.696;11.950;2022-10-16T05:42:09;100024.88;;;12.43;100.00
13015;BME280;6573;57.696;11.950;2022-10-16T05:44:37;100016.91;;;12.44;100.00
13015;BME280;6573;57.696;11.950;2022-10-16T05:47:05;100023.75;;;12.51;100.00
13015;BME280;6573;57.696;11.950;2022-10-16T05:49:33;100010.47;;;12.56;100.00
13015;BME280;6573;57.696;11.950;2022-10-16T05:52:07;100006.03;;;12.58;100.00
13015;BME280;6573;57.696;11.950;2022-10-16T05:54:36;100013.78;;;12.64;100.00
13015;BME280;6573;57.696;11.950;2022-10-16T05:57:05;100018.06;;;12.69;100.00
13015;BME280;6573;57.696;11.950;2022-10-16T05:59:33;100025.00;;;12.73;100.00
13015;BME280;6573;57.696;11.950;2022-10-16T06:02:01;100023.94;;;12.80;100.00
13015;BME280;6573;57.696;11.950;2022-10-16T06:04:29;100007.34;;;12.75;100.00
13015;BME280;6573;57.696;11.950;2022-10-16T06:06:58;100026.50;;;12.83;100.00
13015;BME280;6573;57.696;11.950;2022-10-16T06:09:28;100014.06;;;12.88;100.00
13015;BME280;6573;57.696;11.950;2022-10-16T06:11:58;100015.69;;;12.92;100.00
13015;BME280;6573;57.696;11.950;2022-10-16T06:14:26;100012.94;;;12.98;100.00
13015;BME280;6573;57.696;11.950;2022-10-16T06:16:54;100008.53;;;12.97;100.00
13015;BME280;6573;57.696;11.950;2022-10-16T06:19:22;100015.50;;;13.02;100.00
13015;BME280;6573;57.696;11.950;2022-10-16T06:21:51;100010.06;;;13.08;100.00
13015;BME280;6573;57.696;11.950;2022-10-16T06:24:19;100010.00;;;13.11;100.00
13015;BME280;6573;57.696;11.950;2022-10-16T06:26:47;100009.06;;;13.13;100.00
13015;BME280;6573;57.696;11.950;2022-10-16T06:29:17;100003.00;;;13.10;100.00
13015;BME280;6573;57.696;11.950;2022-10-16T06:31:45;100008.19;;;13.13;100.00
13015;BME280;6573;57.696;11.950;2022-10-16T06:34:13;100009.78;;;13.20;100.00
13015;BME280;6573;57.696;11.950;2022-10-16T06:36:41;100011.41;;;13.24;100.00
13015;BME280;6573;57.696;11.950;2022-10-16T06:39:10;100015.69;;;13.28;100.00
13015;BME280;6573;57.696;11.950;2022-10-16T06:41:38;100017.44;;;13.29;100.00
13015;BME280;6573;57.696;11.950;2022-10-16T06:44:07;100023.56;;;13.31;100.00
13015;BME280;6573;57.696;11.950;2022-10-16T06:46:36;100016.63;;;13.27;100.00
13015;BME280;6573;57.696;11.950;2022-10-16T06:49:05;100007.63;;;13.34;100.00
13015;BME280;6573;57.696;11.950;2022-10-16T06:51:33;100008.41;;;13.37;100.00
13015;BME280;6573;57.696;11.950;2022-10-16T06:54:08;99991.78;;;13.34;100.00
13015;BME280;6573;57.696;11.950;2022-10-16T06:56:36;100000.38;;;13.42;100.00
13015;BME280;6573;57.696;11.950;2022-10-16T06:59:05;100002.00;;;13.46;100.00
13015;BME280;6573;57.696;11.950;2022-10-16T07:01:33;100003.66;;;13.50;100.00
13015;BME280;6573;57.696;11.950;2022-10-16T07:04:03;100007.09;;;13.53;100.00
13015;BME280;6573;57.696;11.950;2022-10-16T07:06:33;100000.03;;;13.54;100.00
13015;BME280;6573;57.696;11.950;2022-10-16T07:09:03;100007.97;;;13.54;100.00
13015;BME280;6573;57.696;11.950;2022-10-16T07:11:33;99999.91;;;13.57;100.00
13015;BME280;6573;57.696;11.950;2022-10-16T07:14:01;100003.41;;;13.59;100.00
13015;BME280;6573;57.696;11.950;2022-10-16T07:16:31;99990.34;;;13.54;100.00
13015;BME280;6573;57.696;11.950;2022-10-16T07:19:01;99994.63;;;13.57;100.00
13015;BME280;6573;57.696;11.950;2022-10-16T07:21:33;99994.47;;;13.63;100.00
13015;BME280;6573;57.696;11.950;2022-10-16T07:24:04;99994.41;;;13.66;100.00
13015;BME280;6573;57.696;11.950;2022-10-16T07:26:35;99999.50;;;13.72;100.00
13015;BME280;6573;57.696;11.950;2022-10-16T07:29:04;99992.28;;;13.77;100.00
13015;BME280;6573;57.696;11.950;2022-10-16T07:31:32;99994.03;;;13.78;100.00
13015;BME280;6573;57.696;11.950;2022-10-16T07:34:01;99993.97;;;13.81;100.00
13015;BME280;6573;57.696;11.950;2022-10-16T07:36:30;99997.59;;;13.77;100.00
13015;BME280;6573;57.696;11.950;2022-10-16T07:38:59;99993.09;;;13.81;100.00
13015;BME280;6573;57.696;11.950;2022-10-16T07:41:27;100001.66;;;13.89;100.00
13015;BME280;6573;57.696;11.950;2022-10-16T07:43:55;99992.88;;;13.88;100.00
13015;BME280;6573;57.696;11.950;2022-10-16T07:46:27;99991.84;;;13.92;100.00
13015;BME280;6573;57.696;11.950;2022-10-16T07:48:55;99995.31;;;13.94;100.00
13015;BME280;6573;57.696;11.950;2022-10-16T07:51:24;99990.03;;;13.94;100.00
13015;BME280;6573;57.696;11.950;2022-10-16T07:53:54;99991.72;;;13.97;100.00
13015;BME280;6573;57.696;11.950;2022-10-16T07:56:23;99989.03;;;13.98;100.00
13015;BME280;6573;57.696;11.950;2022-10-16T07:58:51;99988.91;;;14.03;100.00
13015;BME280;6573;57.696;11.950;2022-10-16T08:01:20;99994.09;;;14.06;100.00
13015;BME280;6573;57.696;11.950;2022-10-16T08:03:50;99984.28;;;14.09;100.00
13015;BME280;6573;57.696;11.950;2022-10-16T08:06:19;99989.47;;;14.12;100.00
13015;BME280;6573;57.696;11.950;2022-10-16T08:08:55;99991.94;;;14.18;100.00
13015;BME280;6573;57.696;11.950;2022-10-16T08:11:23;99992.72;;;14.22;100.00
13015;BME280;6573;57.696;11.950;2022-10-16T08:13:51;99995.31;;;14.23;100.00
13015;BME280;6573;57.696;11.950;2022-10-16T08:16:20;99983.72;;;14.27;100.00
13015;BME280;6573;57.696;11.950;2022-10-16T08:18:49;99988.88;;;14.34;100.00
13015;BME280;6573;57.696;11.950;2022-10-16T08:21:19;99995.88;;;14.35;100.00
13015;BME280;6573;57.696;11.950;2022-10-16T08:23:48;99999.34;;;14.37;100.00
13015;BME280;6573;57.696;11.950;2022-10-16T08:26:25;99985.28;;;14.35;100.00
13015;BME280;6573;57.696;11.950;2022-10-16T08:28:54;100000.91;;;14.44;100.00
13015;BME280;6573;57.696;11.950;2022-10-16T08:31:23;100002.69;;;14.43;100.00
13015;BME280;6573;57.696;11.950;2022-10-16T08:33:53;99993.69;;;14.49;100.00
13015;BME280;6573;57.696;11.950;2022-10-16T08:36:21;99997.94;;;14.53;100.00
13015;BME280;6573;57.696;11.950;2022-10-16T08:38:50;100003.25;;;14.53;100.00
13015;BME280;6573;57.696;11.950;2022-10-16T08:41:54;100007.81;;;14.48;100.00
13015;BME280;6573;57.696;11.950;2022-10-16T08:44:37;100006.69;;;14.55;100.00
13015;BME280;6573;57.696;11.950;2022-10-16T08:47:17;100000.91;;;14.44;100.00
13015;BME280;6573;57.696;11.950;2022-10-16T08:49:56;100013.09;;;14.48;100.00
13015;BME280;6573;57.696;11.950;2022-10-16T08:52:29;100011.09;;;14.56;100.00
13015;BME280;6573;57.696;11.950;2022-10-16T08:54:58;99995.22;;;14.56;100.00
13015;BME280;6573;57.696;11.950;2022-10-16T08:57:27;100005.41;;;14.68;100.00
13015;BME280;6573;57.696;11.950;2022-10-16T09:00:00;100008.78;;;14.73;100.00
13015;BME280;6573;57.696;11.950;2022-10-16T09:02:36;100012.22;;;14.75;100.00
13015;BME280;6573;57.696;11.950;2022-10-16T09:05:24;100015.78;;;14.74;100.00
13015;BME280;6573;57.696;11.950;2022-10-16T09:08:05;100021.19;;;14.71;100.00
13015;BME280;6573;57.696;11.950;2022-10-16T09:10:44;100015.75;;;14.75;100.00
13015;BME280;6573;57.696;11.950;2022-10-16T09:13:24;100005.09;;;14.77;100.00
13015;BME280;6573;57.696;11.950;2022-10-16T09:16:01;100010.59;;;14.71;100.00
13015;BME280;6573;57.696;11.950;2022-10-16T09:18:40;100012.63;;;14.63;100.00
13015;BME280;6573;57.696;11.950;2022-10-16T09:21:14;100016.31;;;14.57;100.00
13015;BME280;6573;57.696;11.950;2022-10-16T09:23:44;100023.47;;;14.54;100.00
13015;BME280;6573;57.696;11.950;2022-10-16T09:26:13;100020.75;;;14.57;100.00
13015;BME280;6573;57.696;11.950;2022-10-16T09:28:44;100019.19;;;14.51;100.00
13015;BME280;6573;57.696;11.950;2022-10-16T09:31:15;100025.22;;;14.55;100.00
13015;BME280;6573;57.696;11.950;2022-10-16T09:33:48;100021.47;;;14.62;100.00
13015;BME280;6573;57.696;11.950;2022-10-16T09:36:19;100008.16;;;14.65;100.00
13015;BME280;6573;57.696;11.950;2022-10-16T09:38:48;100022.25;;;14.65;100.00
13015;BME280;6573;57.696;11.950;2022-10-16T09:41:20;100012.72;;;14.60;100.00
13015;BME280;6573;57.696;11.950;2022-10-16T09:43:53;100012.41;;;14.69;100.00
13015;BME280;6573;57.696;11.950;2022-10-16T09:46:26;100021.28;;;14.68;100.00
13015;BME280;6573;57.696;11.950;2022-10-16T09:48:57;100024.84;;;14.67;100.00
13015;BME280;6573;57.696;11.950;2022-10-16T09:51:28;100028.28;;;14.69;100.00
13015;BME280;6573;57.696;11.950;2022-10-16T09:53:59;100032.44;;;14.77;100.00
13015;BME280;6573;57.696;11.950;2022-10-16T09:56:29;100019.16;;;14.79;100.00
13015;BME280;6573;57.696;11.950;2022-10-16T09:59:08;100013.75;;;14.82;100.00
13015;BME280;6573;57.696;11.950;2022-10-16T10:01:38;100008.38;;;14.85;100.00
13015;BME280;6573;57.696;11.950;2022-10-16T10:04:07;100012.63;;;14.89;100.00
13015;BME280;6573;57.696;11.950;2022-10-16T10:06:40;100010.84;;;14.89;100.00
13015;BME280;6573;57.696;11.950;2022-10-16T10:09:20;100014.22;;;14.95;100.00
13015;BME280;6573;57.696;11.950;2022-10-16T10:11:50;100023.84;;;14.97;100.00
13015;BME280;6573;57.696;11.950;2022-10-16T10:14:26;100013.97;;;15.02;100.00
13015;BME280;6573;57.696;11.950;2022-10-16T10:17:09;100013.88;;;15.05;100.00
13015;BME280;6573;57.696;11.950;2022-10-16T10:19:38;100009.47;;;15.04;100.00
13015;BME280;6573;57.696;11.950;2022-10-16T10:22:22;100009.28;;;15.10;100.00
13015;BME280;6573;57.696;11.950;2022-10-16T10:27:55;100014.47;;;15.13;100.00
13015;BME280;6573;57.696;11.950;2022-10-16T10:30:34;100025.34;;;15.06;100.00
13015;BME280;6573;57.696;11.950;2022-10-16T10:33:14;100021.81;;;15.05;100.00
13015;BME280;6573;57.696;11.950;2022-10-16T10:35:53;100037.00;;;15.00;100.00
13015;BME280;6573;57.696;11.950;2022-10-16T10:38:34;100030.97;;;14.95;100.00
13015;BME280;6573;57.696;11.950;2022-10-16T10:41:23;100041.84;;;14.86;100.00
13015;BME280;6573;57.696;11.950;2022-10-16T10:44:03;100040.03;;;14.88;100.00
13015;BME280;6573;57.696;11.950;2022-10-16T10:46:41;100045.44;;;14.85;100.00
13015;BME280;6573;57.696;11.950;2022-10-16T10:49:40;100023.84;;;14.71;100.00
13015;BME280;6573;57.696;11.950;2022-10-16T10:52:31;100041.28;;;14.76;100.00
13015;BME280;6573;57.696;11.950;2022-10-16T10:55:10;100033.72;;;14.66;100.00
13015;BME280;6573;57.696;11.950;2022-10-16T10:57:46;100035.72;;;14.58;100.00
13015;BME280;6573;57.696;11.950;2022-10-16T11:00:27;100026.13;;;14.54;100.00
13015;BME280;6573;57.696;11.950;2022-10-16T11:03:06;100034.75;;;14.60;100.00
13015;BME280;6573;57.696;11.950;2022-10-16T11:05:42;100007.34;;;14.63;100.00
13015;BME280;6573;57.696;11.950;2022-10-16T11:08:17;100013.38;;;14.66;100.00
13015;BME280;6573;57.696;11.950;2022-10-16T11:10:52;100018.78;;;14.63;100.00
13015;BME280;6573;57.696;11.950;2022-10-16T11:13:30;100007.34;;;14.63;100.00
13015;BME280;6573;57.696;11.950;2022-10-16T11:16:13;100002.94;;;14.62;100.00
13015;BME280;6573;57.696;11.950;2022-10-16T11:18:51;99993.28;;;14.61;100.00
13015;BME280;6573;57.696;11.950;2022-10-16T11:21:24;99994.59;;;14.74;100.00
13015;BME280;6573;57.696;11.950;2022-10-16T11:24:01;99994.41;;;14.80;100.00
13015;BME280;6573;57.696;11.950;2022-10-16T11:26:34;99988.88;;;14.86;100.00
13015;BME280;6573;57.696;11.950;2022-10-16T11:29:05;99982.50;;;14.93;100.00
13015;BME280;6573;57.696;11.950;2022-10-16T11:31:43;99978.00;;;14.95;100.00
13015;BME280;6573;57.696;11.950;2022-10-16T11:34:22;99978.97;;;14.93;100.00
13015;BME280;6573;57.696;11.950;2022-10-16T11:36:56;99972.81;;;14.92;100.00
13015;BME280;6573;57.696;11.950;2022-10-16T11:39:28;99978.88;;;14.96;100.00
13015;BME280;6573;57.696;11.950;2022-10-16T11:42:01;99978.09;;;14.92;100.00
13015;BME280;6573;57.696;11.950;2022-10-16T11:44:44;99972.25;;;14.82;100.00
13015;BME280;6573;57.696;11.950;2022-10-16T11:47:27;99988.41;;;14.75;100.00
13015;BME280;6573;57.696;11.950;2022-10-16T11:50:24;99983.34;;;14.67;100.00
13015;BME280;6573;57.696;11.950;2022-10-16T11:52:58;99985.19;;;14.65;100.00
13015;BME280;6573;57.696;11.950;2022-10-16T11:55:31;99978.94;;;14.68;100.00
13015;BME280;6573;57.696;11.950;2022-10-16T11:58:04;100002.94;;;14.62;100.00
13015;BME280;6573;57.696;11.950;2022-10-16T12:00:39;100106.47;;;14.53;100.00
13015;BME280;6573;57.696;11.950;2022-10-16T12:03:15;100133.22;;;13.12;100.00
13015;BME280;6573;57.696;11.950;2022-10-16T12:06:09;100136.50;;;12.43;100.00
13015;BME280;6573;57.696;11.950;2022-10-16T12:08:43;100127.91;;;12.35;100.00
13015;BME280;6573;57.696;11.950;2022-10-16T12:11:23;100126.66;;;12.10;100.00
13015;BME280;6573;57.696;11.950;2022-10-16T12:14:04;100114.31;;;12.12;100.00
13015;BME280;6573;57.696;11.950;2022-10-16T12:16:34;100114.25;;;12.15;100.00
13015;BME280;6573;57.696;11.950;2022-10-16T12:19:12;100112.69;;;12.05;100.00
13015;BME280;6573;57.696;11.950;2022-10-16T12:21:44;100107.41;;;12.05;100.00
13015;BME280;6573;57.696;11.950;2022-10-16T12:24:22;100101.53;;;11.92;100.00
13015;BME280;6573;57.696;11.950;2022-10-16T12:26:54;100077.66;;;12.00;100.00
13015;BME280;6573;57.696;11.950;2022-10-16T12:29:32;100075.84;;;12.02;100.00
13015;BME280;6573;57.696;11.950;2022-10-16T12:32:04;100072.19;;;12.09;100.00
13015;BME280;6573;57.696;11.950;2022-10-16T12:34:39;100064.25;;;12.10;100.00
13015;BME280;6573;57.696;11.950;2022-10-16T12:37:20;100084.28;;;12.19;100.00
13015;BME280;6573;57.696;11.950;2022-10-16T12:39:49;100076.91;;;12.33;100.00
13015;BME280;6573;57.696;11.950;2022-10-16T12:42:30;100075.75;;;12.48;100.00
13015;BME280;6573;57.696;11.950;2022-10-16T12:45:00;100074.38;;;12.68;100.00
13015;BME280;6573;57.696;11.950;2022-10-16T12:47:38;100065.28;;;12.81;100.00
13015;BME280;6573;57.696;11.950;2022-10-16T12:50:33;100070.47;;;12.84;100.00
13015;BME280;6573;57.696;11.950;2022-10-16T12:53:17;100082.69;;;12.88;100.00
13015;BME280;6573;57.696;11.950;2022-10-16T12:55:53;100086.25;;;12.87;100.00
13015;BME280;6573;57.696;11.950;2022-10-16T13:01:37;100094.28;;;13.20;100.00
13015;BME280;6573;57.696;11.950;2022-10-16T13:04:23;100109.91;;;13.27;100.00
13015;BME280;6573;57.696;11.950;2022-10-16T13:07:00;100099.34;;;13.29;100.00
13015;BME280;6573;57.696;11.950;2022-10-16T13:09:40;100119.31;;;13.39;100.00
13015;BME280;6573;57.696;11.950;2022-10-16T13:12:22;100117.50;;;13.41;100.00
13015;BME280;6573;57.696;11.950;2022-10-16T13:15:16;100134.03;;;13.49;100.00